Time;durP1;ratioP1;P1;durP2;ratioP2;P2;SDS_P1;SDS_P2;PMS_P1;PMS_P2;Temp;Humidity;BMP_temperature;BMP_pressure;BME280_temperature;BME280_humidity;BME280_pressure;Samples;Min_cycle;Max_cycle;Signal;HPM_P1;HPM_P2
2023/04/21 00:02:29;;;;;;;5.30;0.85;;;9.50;95.80;;;;;;5042876;28;20131;-92
2023/04/21 00:05:16;;;;;;;0.30;0.30;;;9.40;96.40;;;;;;5042508;28;20493;-92
2023/04/21 00:11:20;;;;;;;;;;;;;;;;;;;;;
2023/04/21 00:14:33;;;;;;;2.75;1.08;;;9.40;95.80;;;;;;5059031;28;19971;-92
2023/04/21 00:17:21;;;;;;;;;;;;;;;;;;;;;
2023/04/21 00:20:14;;;;;;;0.55;0.17;;;9.30;96.70;;;;;;5057953;28;20048;-91
2023/04/21 00:23:02;;;;;;;1.05;0.20;;;9.30;96.70;;;;;;5057268;28;20053;-91
2023/04/21 00:26:01;;;;;;;;;;;;;;;;;;;;;
2023/04/21 00:29:00;;;;;;;;;;;;;;;;;;;;;
2023/04/21 00:31:59;;;;;;;;;;;;;;;;;;;;;
2023/04/21 00:34:38;;;;;;;;;;;;;;;;;;;;;
2023/04/21 00:37:40;;;;;;;;;;;;;;;;;;;;;
2023/04/21 00:45:53;;;;;;;;;;;;;;;;;;;;;
2023/04/21 00:48:39;;;;;;;;;;;;;;;;;;;;;
2023/04/21 00:51:31;;;;;;;1.67;0.93;;;9.00;96.60;;;;;;5110565;28;20056;-91
2023/04/21 00:54:36;;;;;;;;;;;;;;;;;;;;;
2023/04/21 00:57:13;;;;;;;2.38;0.82;;;8.90;96.80;;;;;;5090693;28;20047;-91
2023/04/21 00:59:54;;;;;;;;;;;;;;;;;;;;;
2023/04/21 01:02:32;;;;;;;;;;;;;;;;;;;;;
2023/04/21 01:05:16;;;;;;;2.25;1.05;;;8.90;97.60;;;;;;5078187;28;20048;-92
2023/04/21 01:07:56;;;;;;;0.80;0.17;;;9.10;97.60;;;;;;5094877;28;20048;-92
2023/04/21 01:10:25;;;;;;;0.20;0.20;;;8.90;97.30;;;;;;5075732;28;20048;-91
2023/04/21 01:12:51;;;;;;;2.47;0.47;;;8.90;97.60;;;;;;5077631;28;20067;-90
2023/04/21 01:15:32;;;;;;;1.52;0.55;;;8.90;97.40;;;;;;5077809;28;20083;-91
2023/04/21 01:18:01;;;;;;;0.40;0.30;;;8.90;97.80;;;;;;5094966;28;20062;-91
2023/04/21 01:21:17;;;;;;;;;;;;;;;;;;;;;
2023/04/21 01:23:51;;;;;;;1.48;1.17;;;9.00;97.60;;;;;;5111323;28;20043;-91
2023/04/21 01:26:23;;;;;;;0.95;0.85;;;8.90;97.00;;;;;;5076637;28;20074;-91
2023/04/21 01:29:14;;;;;;;0.30;0.25;;;8.90;97.60;;;;;;5060670;28;20097;-91
2023/04/21 01:31:46;;;;;;;1.08;0.40;;;8.80;97.30;;;;;;5094242;28;20396;-92
2023/04/21 01:34:14;;;;;;;0.57;0.28;;;8.90;97.20;;;;;;5077471;28;20044;-91
2023/04/21 01:37:11;;;;;;;1.20;0.65;;;8.80;97.40;;;;;;5094145;28;20105;-90
2023/04/21 01:40:08;;;;;;;;;;;;;;;;;;;;;
2023/04/21 01:42:49;;;;;;;0.28;0.10;;;8.90;97.40;;;;;;5090279;28;20506;-91
2023/04/21 01:45:33;;;;;;;1.00;0.52;;;8.90;97.70;;;;;;5093935;28;20456;-91
2023/04/21 01:48:34;;;;;;;0.95;0.30;;;8.90;97.70;;;;;;5089797;28;20056;-91
2023/04/21 01:51:15;;;;;;;;;;;;;;;;;;;;;
2023/04/21 01:53:45;;;;;;;0.55;0.55;;;8.90;97.90;;;;;;5071878;28;20041;-91
2023/04/21 01:56:24;;;;;;;;;;;;;;;;;;;;;
2023/04/21 01:58:54;;;;;;;3.05;0.47;;;8.90;97.40;;;;;;5108083;28;20194;-91
2023/04/21 02:01:23;;;;;;;2.88;1.92;;;8.90;97.90;;;;;;5055851;28;20044;-91
2023/04/21 02:04:10;;;;;;;0.65;0.35;;;8.90;97.80;;;;;;5039895;28;20040;-92
2023/04/21 02:06:45;;;;;;;0.08;0.08;;;8.90;97.70;;;;;;5089831;28;20052;-90
2023/04/21 02:09:17;;;;;;;0.20;0.10;;;8.90;97.40;;;;;;5040902;28;20052;-91
2023/04/21 02:12:16;;;;;;;0.70;0.50;;;9.00;97.10;;;;;;5055946;28;20044;-91
2023/04/21 02:14:46;;;;;;;2.35;0.32;;;9.10;97.00;;;;;;5054497;28;20084;-91
2023/04/21 02:17:23;;;;;;;0.88;0.22;;;8.90;97.30;;;;;;5039612;28;20048;-90
2023/04/21 02:19:59;;;;;;;5.28;1.13;;;9.00;97.70;;;;;;5056473;28;20049;-91
2023/04/21 02:22:28;;;;;;;0.52;0.52;;;9.00;96.80;;;;;;5039293;28;20050;-91
2023/04/21 02:25:18;;;;;;;;;;;;;;;;;;;;;
2023/04/21 02:30:59;;;;;;;;;;;;;;;;;;;;;
2023/04/21 02:34:01;;;;;;;;;;;;;;;;;;;;;
2023/04/21 02:36:58;;;;;;;;;;;;;;;;;;;;;
2023/04/21 02:39:42;;;;;;;;;;;;;;;;;;;;;
2023/04/21 02:42:36;;;;;;;0.35;0.35;;;8.90;96.90;;;;;;5075271;28;20049;-92
2023/04/21 02:45:05;;;;;;;0.65;0.45;;;9.00;97.80;;;;;;5038469;28;20063;-91
2023/04/21 02:47:31;;;;;;;0.10;0.10;;;9.00;97.20;;;;;;5060055;28;20196;-91
2023/04/21 02:49:59;;;;;;;0.90;0.40;;;9.00;97.20;;;;;;5060393;28;20052;-91
2023/04/21 02:52:40;;;;;;;0.30;0.30;;;9.00;96.50;;;;;;5044076;28;20445;-92
2023/04/21 02:56:06;;;;;;;0.30;0.30;;;9.00;96.30;;;;;;5060737;28;20056;-92
2023/04/21 02:58:52;;;;;;;0.68;0.55;;;9.10;96.40;;;;;;5070630;28;20061;-92
2023/04/21 03:01:50;;;;;;;;;;;;;;;;;;;;;
2023/04/21 03:04:53;;;;;;;;;;;;;;;;;;;;;
2023/04/21 03:07:25;;;;;;;0.50;0.40;;;9.10;95.80;;;;;;5074689;28;20040;-91
2023/04/21 03:10:05;;;;;;;0.20;0.20;;;9.20;95.80;;;;;;5043974;28;20083;-90
2023/04/21 03:13:15;;;;;;;;;;;;;;;;;;;;;
2023/04/21 03:16:02;;;;;;;11.15;1.00;;;9.30;95.00;;;;;;5061899;28;20480;-91
2023/04/21 03:18:53;;;;;;;;;;;;;;;;;;;;;
2023/04/21 03:21:24;;;;;;;0.38;0.38;;;9.40;94.70;;;;;;5092775;28;20044;-90
2023/04/21 03:24:16;;;;;;;0.30;0.20;;;9.40;94.50;;;;;;5076003;28;20047;-91
2023/04/21 03:27:00;;;;;;;;;;;;;;;;;;;;;
2023/04/21 03:29:45;;;;;;;1.27;1.17;;;9.40;94.40;;;;;;5073889;28;20587;-91
2023/04/21 03:32:14;;;;;;;0.22;0.17;;;9.40;94.00;;;;;;5057468;28;20056;-91
2023/04/21 03:34:42;;;;;;;1.63;0.85;;;9.40;94.20;;;;;;5043192;28;20071;-91
2023/04/21 03:37:36;;;;;;;0.30;0.30;;;9.50;93.80;;;;;;5042259;28;20047;-92
2023/04/21 03:40:30;;;;;;;0.93;0.85;;;9.50;93.70;;;;;;5060725;28;20155;-91
2023/04/21 03:43:19;;;;;;;;;;;;;;;;;;;;;
2023/04/21 03:45:55;;;;;;;0.57;0.10;;;9.40;93.60;;;;;;5058272;28;20588;-90
2023/04/21 03:48:37;;;;;;;0.55;0.55;;;9.60;94.40;;;;;;5054777;28;20092;-91
2023/04/21 03:51:09;;;;;;;0.05;0.05;;;9.40;94.20;;;;;;5072397;28;20049;-90
2023/04/21 03:53:46;;;;;;;0.60;0.10;;;9.40;94.00;;;;;;5075549;28;20049;-90
2023/04/21 03:56:38;;;;;;;1.17;0.60;;;9.40;94.70;;;;;;5062901;28;20510;-91
2023/04/21 03:59:19;;;;;;;;;;;;;;;;;;;;;
2023/04/21 04:02:19;;;;;;;0.00;0.00;;;9.40;94.00;;;;;;5093837;28;20040;-91
2023/04/21 04:05:08;;;;;;;0.00;0.00;;;9.40;94.10;;;;;;5095618;28;20052;-91
2023/04/21 04:07:47;;;;;;;;;;;;;;;;;;;;;
2023/04/21 04:10:31;;;;;;;0.03;0.03;;;9.30;93.70;;;;;;5078934;28;20147;-90
2023/04/21 04:13:21;;;;;;;0.68;0.68;;;9.30;94.00;;;;;;5062092;28;20055;-91
2023/04/21 04:16:18;;;;;;;0.08;0.08;;;9.20;94.00;;;;;;5061865;28;20040;-91
2023/04/21 04:22:06;;;;;;;1.67;0.90;;;9.30;94.50;;;;;;5070675;28;20055;-91
2023/04/21 04:24:35;;;;;;;1.10;0.70;;;9.30;94.60;;;;;;5095696;28;20054;-91
2023/04/21 04:27:04;;;;;;;0.20;0.20;;;9.20;94.40;;;;;;5095133;28;20491;-91
2023/04/21 04:29:42;;;;;;;;;;;;;;;;;;;;;
2023/04/21 04:32:09;;;;;;;0.57;0.28;;;9.20;94.50;;;;;;5093771;28;20063;-91
2023/04/21 04:34:54;;;;;;;0.10;0.05;;;9.20;94.60;;;;;;5092197;28;20056;-90
2023/04/21 04:37:24;;;;;;;0.10;0.10;;;9.10;94.70;;;;;;5076134;28;20044;-90
2023/04/21 04:40:09;;;;;;;0.00;0.00;;;9.10;94.50;;;;;;5077977;28;20097;-91
2023/04/21 04:43:06;;;;;;;;;;;;;;;;;;;;;
2023/04/21 04:45:54;;;;;;;0.05;0.03;;;9.10;94.70;;;;;;5108120;28;20121;-91
2023/04/21 04:48:34;;;;;;;0.30;0.22;;;9.10;95.30;;;;;;5077167;28;20559;-90
2023/04/21 04:51:22;;;;;;;0.22;0.22;;;9.10;95.10;;;;;;5077079;28;20058;-90
2023/04/21 04:53:55;;;;;;;0.63;0.63;;;9.10;95.20;;;;;;5077889;28;20048;-91
2023/04/21 04:56:27;;;;;;;0.08;0.08;;;9.10;94.80;;;;;;5060653;28;20055;-91
2023/04/21 04:59:12;;;;;;;;;;;;;;;;;;;;;
2023/04/21 05:01:51;;;;;;;0.28;0.25;;;9.10;94.80;;;;;;5076367;28;20083;-91
2023/04/21 05:04:22;;;;;;;0.15;0.15;;;9.10;94.30;;;;;;5076330;28;20472;-90
2023/04/21 05:07:00;;;;;;;0.30;0.10;;;9.20;94.80;;;;;;5094712;28;20052;-91
2023/04/21 05:09:45;;;;;;;0.05;0.03;;;9.10;94.70;;;;;;5075789;28;20044;-90
2023/04/21 05:12:21;;;;;;;0.20;0.05;;;9.20;95.00;;;;;;5076904;28;20040;-91
2023/04/21 05:14:51;;;;;;;0.52;0.00;;;9.20;94.90;;;;;;5076780;28;20048;-92
2023/04/21 05:17:20;;;;;;;0.68;0.22;;;9.20;94.80;;;;;;5077150;28;20044;-90
2023/04/21 05:19:55;;;;;;;0.10;0.10;;;9.20;94.50;;;;;;5094001;28;20051;-91
2023/04/21 05:22:23;;;;;;;2.42;0.15;;;9.20;94.50;;;;;;5076165;28;20126;-93
2023/04/21 05:24:59;;;;;;;0.00;0.00;;;9.30;94.50;;;;;;5076494;28;20042;-90
2023/04/21 05:27:28;;;;;;;0.10;0.10;;;9.30;94.60;;;;;;5076242;28;20051;-89
2023/04/21 05:30:15;;;;;;;0.57;0.30;;;9.40;94.60;;;;;;5094103;28;20074;-90
2023/04/21 05:32:50;;;;;;;0.10;0.00;;;9.40;95.00;;;;;;5093649;28;20445;-89
2023/04/21 05:35:32;;;;;;;;;;;;;;;;;;;;;
2023/04/21 05:38:08;;;;;;;0.10;0.00;;;9.40;94.30;;;;;;5091158;28;20066;-89
2023/04/21 05:40:44;;;;;;;;;;;;;;;;;;;;;
2023/04/21 05:43:21;;;;;;;1.23;0.10;;;9.60;94.10;;;;;;5076475;28;20048;-89
2023/04/21 05:45:59;;;;;;;0.45;0.45;;;9.60;93.10;;;;;;5058641;28;20068;-90
2023/04/21 05:48:42;;;;;;;0.50;0.45;;;9.70;93.70;;;;;;5074561;28;20055;-89
2023/04/21 05:51:15;;;;;;;0.35;0.35;;;9.70;93.20;;;;;;5076538;28;20055;-91
2023/04/21 05:53:49;;;;;;;0.00;0.00;;;9.80;93.70;;;;;;5060085;28;20048;-89
2023/04/21 05:56:20;;;;;;;0.95;0.90;;;9.80;93.00;;;;;;5075715;28;20040;-90
2023/04/21 05:58:49;;;;;;;0.35;0.20;;;9.90;92.80;;;;;;5092935;28;20561;-89
2023/04/21 06:01:14;;;;;;;0.00;0.00;;;10.00;92.60;;;;;;5103257;28;20055;-89
2023/04/21 06:03:49;;;;;;;0.55;0.32;;;10.10;93.00;;;;;;5075473;28;20039;-89
2023/04/21 06:06:21;;;;;;;0.40;0.40;;;10.10;92.20;;;;;;5077193;28;20039;-89
2023/04/21 06:08:52;;;;;;;0.38;0.38;;;10.30;91.40;;;;;;5078049;28;20041;-89
2023/04/21 06:11:26;;;;;;;0.10;0.10;;;10.40;90.80;;;;;;5059687;28;20050;-89
2023/04/21 06:13:57;;;;;;;0.10;0.00;;;10.50;89.90;;;;;;5076114;28;20045;-89
2023/04/21 06:16:28;;;;;;;0.52;0.52;;;10.60;86.90;;;;;;5075429;28;20066;-89
2023/04/21 06:19:12;;;;;;;;;;;;;;;;;;;;;
2023/04/21 06:21:40;;;;;;;0.00;0.00;;;10.70;87.80;;;;;;5096204;28;20057;-88
2023/04/21 06:24:08;;;;;;;0.20;0.20;;;10.80;86.70;;;;;;5079008;28;20050;-90
2023/04/21 06:26:49;;;;;;;0.00;0.00;;;11.00;88.50;;;;;;5079844;28;20070;-89
2023/04/21 06:29:29;;;;;;;0.93;0.73;;;11.10;82.10;;;;;;5064878;28;20128;-90
2023/04/21 06:32:49;;;;;;;;;;;;;;;;;;;;;
2023/04/21 06:35:06;;;;;;;0.70;0.60;;;11.20;80.20;;;;;;5076829;28;20048;-90
2023/04/21 06:37:34;;;;;;;3.15;0.75;;;11.30;80.80;;;;;;5062940;28;20121;-89
2023/04/21 06:40:11;;;;;;;0.63;0.38;;;11.30;79.80;;;;;;5062275;28;20137;-89
2023/04/21 06:42:37;;;;;;;0.10;0.10;;;11.40;79.50;;;;;;5063762;28;20475;-88
2023/04/21 06:45:15;;;;;;;0.10;0.10;;;11.50;79.20;;;;;;5079622;28;20055;-89
2023/04/21 06:47:46;;;;;;;0.15;0.15;;;11.40;75.50;;;;;;5079969;28;20056;-91
2023/04/21 06:50:15;;;;;;;9.13;0.38;;;11.50;77.00;;;;;;5079328;28;20048;-94
2023/04/21 06:52:44;;;;;;;0.10;0.10;;;11.50;76.30;;;;;;5079652;28;20110;-91
2023/04/21 06:55:51;;;;;;;;;;;;;;;;;;;;;
2023/04/21 06:58:41;;;;;;;2.35;0.28;;;11.50;76.30;;;;;;5080844;28;20047;-92
2023/04/21 07:01:18;;;;;;;3.65;0.90;;;11.50;74.70;;;;;;5063840;28;20050;-91
2023/04/21 07:04:00;;;;;;;;;;;;;;;;;;;;;
2023/04/21 07:10:20;;;;;;;;;;;;;;;;;;;;;
2023/04/21 07:12:57;;;;;;;0.10;0.10;;;11.70;74.30;;;;;;5075781;28;20518;-91
2023/04/21 07:15:40;;;;;;;;;;;;;;;;;;;;;
2023/04/21 07:25:39;;;;;;;;;;;;;;;;;;;;;
2023/04/21 07:31:20;;;;;;;0.10;0.10;;;12.00;72.30;;;;;;5074384;28;20056;-89
2023/04/21 07:34:29;;;;;;;0.43;0.43;;;12.20;73.20;;;;;;5062439;28;20410;-92
2023/04/21 07:37:22;;;;;;;;;;;;;;;;;;;;;
2023/04/21 07:40:17;;;;;;;0.15;0.15;;;12.60;66.80;;;;;;5103735;28;20079;-90
2023/04/21 07:42:43;;;;;;;0.10;0.10;;;12.80;61.30;;;;;;5074761;28;20139;-87
2023/04/21 07:48:50;;;;;;;;;;;;;;;;;;;;;
2023/04/21 07:51:39;;;;;;;0.10;0.10;;;13.00;58.30;;;;;;5099396;28;20047;-91
2023/04/21 07:54:16;;;;;;;0.68;0.50;;;13.00;65.40;;;;;;5068717;28;20047;-90
2023/04/21 07:57:01;;;;;;;;;;;;;;;;;;;;;
2023/04/21 07:59:38;;;;;;;1.08;0.20;;;13.00;63.40;;;;;;5098494;28;20052;-92
2023/04/21 08:02:20;;;;;;;;;;;;;;;;;;;;;
2023/04/21 08:05:33;;;;;;;;;;;;;;;;;;;;;
2023/04/21 08:13:19;;;;;;;;;;;;;;;;;;;;;
2023/04/21 08:15:56;;;;;;;0.05;0.05;;;13.10;99.90;;;;;;4997555;28;20122;-92
2023/04/21 08:19:00;;;;;;;0.28;0.10;;;13.20;99.90;;;;;;4984018;28;20058;-91
2023/04/21 08:23:19;;;;;;;0.47;0.10;;;13.30;99.90;;;;;;4880133;29;20108;-93
2023/04/21 08:26:06;;;;;;;0.38;0.30;;;13.60;99.90;;;;;;4892377;28;20055;-91
2023/04/21 08:28:46;;;;;;;;;;;13.70;99.90;;;;;;4943935;28;20117;-93
2023/04/21 08:35:33;;;;;;;0.28;0.28;;;13.80;99.90;;;;;;4943511;29;20090;-92
2023/04/21 08:38:44;;;;;;;0.47;0.47;;;13.90;99.90;;;;;;4942569;28;20063;-92
2023/04/21 08:41:13;;;;;;;0.40;0.40;;;13.90;99.90;;;;;;5095465;28;20044;-93
2023/04/21 08:44:01;;;;;;;;;;;;;;;;;;;;;
2023/04/21 08:46:42;;;;;;;0.20;0.10;;;14.20;99.90;;;;;;5112198;28;20060;-91
2023/04/21 08:49:36;;;;;;;0.08;0.08;;;14.30;99.90;;;;;;5057882;28;20052;-91
2023/04/21 08:55:22;;;;;;;0.00;0.00;;;14.60;99.90;;;;;;5056062;28;20051;-90
2023/04/21 08:58:15;;;;;;;;;;;;;;;;;;;;;
2023/04/21 09:01:34;;;;;;;;;;;;;;;;;;;;;
2023/04/21 09:04:36;;;;;;;0.20;0.17;;;14.90;99.90;;;;;;5057320;28;20132;-91
2023/04/21 09:07:14;;;;;;;0.25;0.25;;;15.20;99.90;;;;;;5074345;28;20094;-92
2023/04/21 09:10:04;;;;;;;1.67;0.45;;;15.70;99.90;;;;;;5041149;28;20040;-92
2023/04/21 09:12:44;;;;;;;0.08;0.08;;;16.10;99.90;;;;;;5041262;28;20040;-91
2023/04/21 09:15:37;;;;;;;0.65;0.65;;;16.70;99.90;;;;;;5040893;28;20052;-91
2023/04/21 09:18:34;;;;;;;0.47;0.22;;;17.10;99.90;;;;;;5091139;28;20089;-90
2023/04/21 09:21:35;;;;;;;0.20;0.20;;;17.30;99.90;;;;;;5044138;28;20179;-91
2023/04/21 09:24:09;;;;;;;1.50;0.50;;;17.40;99.90;;;;;;5057771;28;20044;-92
2023/04/21 09:27:20;;;;;;;0.95;0.95;;;17.60;99.90;;;;;;5057373;28;20049;-89
2023/04/21 09:29:54;;;;;;;0.00;0.00;;;17.20;99.90;;;;;;5084869;28;20408;-91
2023/04/21 09:32:38;;;;;;;0.17;0.10;;;17.00;99.90;;;;;;5057042;28;20071;-91
2023/04/21 09:36:02;;;;;;;;;;;;;;;;;;;;;
2023/04/21 09:38:30;;;;;;;;;;;17.10;99.90;;;;;;5054639;28;20136;-91
2023/04/21 09:41:07;;;;;;;0.10;0.10;;;17.40;99.90;;;;;;5073019;28;19927;-91
2023/04/21 09:43:46;;;;;;;0.45;0.28;;;17.60;99.90;;;;;;5090843;28;20496;-92
2023/04/21 09:50:16;;;;;;;;;;;;;;;;;;;;;
2023/04/21 09:53:47;;;;;;;0.32;0.32;;;18.20;99.90;;;;;;5073687;28;20048;-92
2023/04/21 09:56:28;;;;;;;0.75;0.47;;;18.40;99.90;;;;;;5078609;28;20044;-91
2023/04/21 09:59:11;;;;;;;;;;;;;;;;;;;;;
2023/04/21 10:05:39;;;;;;;0.10;0.10;;;18.50;99.90;;;;;;5035786;28;20067;-91
2023/04/21 10:08:56;;;;;;;;;;;;;;;;;;;;;
2023/04/21 10:12:02;;;;;;;;;;;;;;;;;;;;;
2023/04/21 10:15:02;;;;;;;0.55;0.10;;;19.40;99.90;;;;;;4954293;28;20066;-92
2023/04/21 10:18:16;;;;;;;;;;;;;;;;;;;;;
2023/04/21 10:21:16;;;;;;;;;;;;;;;;;;;;;
2023/04/21 10:24:51;;;;;;;;;;;;;;;;;;;;;
2023/04/21 10:54:40;;;;;;;0.25;0.25;;;18.40;97.50;;;;;;4840912;29;20057;-94
2023/04/21 10:58:18;;;;;;;;;;;18.70;97.70;;;;;;4809847;29;20114;-93
2023/04/21 11:00:59;;;;;;;;;;;;;;;;;;;;;
2023/04/21 11:04:02;;;;;;;;;;;;;;;;;;;;;
2023/04/21 11:06:40;;;;;;;0.15;0.10;;;18.60;96.00;;;;;;5023190;28;20058;-88
2023/04/21 11:09:25;;;;;;;0.10;0.10;;;18.90;96.40;;;;;;5068205;28;20051;-89
2023/04/21 11:12:20;;;;;;;2.72;0.40;;;19.10;96.40;;;;;;5058840;28;20044;-89
2023/04/21 11:14:59;;;;;;;;;;;;;;;;;;;;;
2023/04/21 11:18:25;;;;;;;0.40;0.40;;;19.30;96.00;;;;;;5083696;28;20042;-92
2023/04/21 11:21:05;;;;;;;0.80;0.70;;;19.30;96.10;;;;;;5082652;28;20090;-89
2023/04/21 11:23:33;;;;;;;0.20;0.20;;;19.40;96.40;;;;;;5067745;28;20043;-88
2023/04/21 11:26:20;;;;;;;;;;;;;;;;;;;;;
2023/04/21 11:28:49;;;;;;;0.00;0.00;;;19.60;95.60;;;;;;5084999;28;20039;-87
2023/04/21 11:31:18;;;;;;;0.50;0.50;;;19.90;95.10;;;;;;5066399;28;20077;-89
2023/04/21 11:33:57;;;;;;;0.20;0.20;;;20.10;94.10;;;;;;5098985;28;20441;-89
2023/04/21 11:36:26;;;;;;;0.65;0.40;;;20.20;93.60;;;;;;5082492;28;20043;-89
2023/04/21 11:39:08;;;;;;;;;;;;;;;;;;;;;
2023/04/21 11:42:01;;;;;;;0.85;0.60;;;20.60;92.40;;;;;;5083723;28;20127;-90
2023/04/21 11:44:43;;;;;;;0.03;0.03;;;20.60;92.50;;;;;;5065418;28;20372;-89
2023/04/21 11:47:41;;;;;;;;;;;;;;;;;;;;;
2023/04/21 11:50:31;;;;;;;0.22;0.22;;;20.30;92.60;;;;;;5098928;28;20139;-89
2023/04/21 11:53:05;;;;;;;0.75;0.32;;;20.00;91.60;;;;;;5081596;28;20521;-90
2023/04/21 11:55:35;;;;;;;1.85;0.98;;;19.90;92.20;;;;;;5081348;28;20097;-89
2023/04/21 11:58:11;;;;;;;0.10;0.10;;;19.80;92.30;;;;;;5081801;28;20097;-90
2023/04/21 12:00:54;;;;;;;1.95;1.25;;;19.60;92.70;;;;;;5081611;28;20051;-89
2023/04/21 12:03:30;;;;;;;;;;;;;;;;;;;;;
2023/04/21 12:06:07;;;;;;;1.15;0.93;;;19.40;92.80;;;;;;5098373;28;20479;-91
2023/04/21 12:08:40;;;;;;;2.33;1.08;;;19.70;93.00;;;;;;5066962;28;20056;-89
2023/04/21 12:11:09;;;;;;;1.00;0.47;;;19.80;92.10;;;;;;5045420;28;20134;-91
2023/04/21 12:13:43;;;;;;;0.28;0.28;;;19.70;91.90;;;;;;5061284;28;20134;-90
2023/04/21 12:16:12;;;;;;;0.30;0.30;;;19.70;92.30;;;;;;5061559;28;20464;-89
2023/04/21 12:18:56;;;;;;;0.65;0.60;;;19.60;92.40;;;;;;5045335;28;20048;-89
2023/04/21 12:21:36;;;;;;;0.75;0.75;;;19.50;92.40;;;;;;5061185;28;20093;-90
2023/04/21 12:24:11;;;;;;;0.90;0.10;;;19.40;91.10;;;;;;5060927;28;20127;-90
2023/04/21 12:27:12;;;;;;;0.20;0.20;;;19.40;91.50;;;;;;5061688;28;20051;-90
2023/04/21 12:29:39;;;;;;;6.22;0.68;;;19.30;91.20;;;;;;5060854;28;20090;-88
2023/04/21 12:32:05;;;;;;;0.43;0.43;;;19.20;90.80;;;;;;5061183;28;20121;-89
2023/04/21 12:34:40;;;;;;;11.57;0.65;;;19.20;91.00;;;;;;5061180;28;20040;-89
2023/04/21 12:37:08;;;;;;;0.10;0.10;;;19.20;91.30;;;;;;5061278;28;20044;-90
2023/04/21 12:39:44;;;;;;;0.30;0.30;;;19.50;91.40;;;;;;5060527;28;20063;-89
2023/04/21 12:42:15;;;;;;;0.20;0.20;;;19.60;90.60;;;;;;5062061;28;20102;-89
2023/04/21 12:44:46;;;;;;;0.05;0.05;;;19.70;91.40;;;;;;5060030;28;20055;-88
2023/04/21 12:47:43;;;;;;;0.55;0.55;;;19.80;91.70;;;;;;5047466;28;20048;-88
2023/04/21 12:50:12;;;;;;;0.10;0.10;;;19.70;90.40;;;;;;5060780;28;20112;-89
2023/04/21 12:55:52;;;;;;;0.10;0.10;;;19.60;89.20;;;;;;5063533;28;20052;-91
2023/04/21 12:58:30;;;;;;;0.43;0.10;;;19.40;89.50;;;;;;5061253;28;20408;-90
2023/04/21 13:01:15;;;;;;;0.10;0.10;;;19.30;89.20;;;;;;5078822;28;20130;-90
2023/04/21 13:03:53;;;;;;;0.00;0.00;;;19.20;90.60;;;;;;5060950;28;20047;-89
2023/04/21 13:09:15;;;;;;;0.00;0.00;;;19.10;88.60;;;;;;5055308;28;20044;-90
2023/04/21 13:11:50;;;;;;;0.22;0.22;;;19.30;88.30;;;;;;5060544;28;20083;-90
2023/04/21 13:14:28;;;;;;;0.10;0.10;;;19.50;87.90;;;;;;5060087;28;20040;-89
2023/04/21 13:17:03;;;;;;;0.05;0.03;;;19.50;87.00;;;;;;5045190;28;20090;-89
2023/04/21 13:19:34;;;;;;;0.20;0.20;;;19.50;85.00;;;;;;5060536;28;20472;-89
2023/04/21 13:22:07;;;;;;;0.20;0.20;;;19.30;83.80;;;;;;5043858;28;20048;-89
2023/04/21 13:24:39;;;;;;;0.63;0.35;;;19.30;85.80;;;;;;5060024;28;20404;-90
2023/04/21 13:27:32;;;;;;;;;;;;;;;;;;;;;
2023/04/21 13:30:05;;;;;;;0.75;0.40;;;19.70;87.50;;;;;;5076931;28;20036;-90
2023/04/21 13:32:31;;;;;;;0.22;0.10;;;19.70;84.60;;;;;;5060109;28;20044;-89
2023/04/21 13:35:18;;;;;;;;;;;;;;;;;;;;;
2023/04/21 13:37:54;;;;;;;0.00;0.00;;;19.70;84.10;;;;;;5076748;28;20102;-90
2023/04/21 13:40:29;;;;;;;0.00;0.00;;;19.70;82.90;;;;;;5031197;28;20480;-90
2023/04/21 13:43:02;;;;;;;0.73;0.17;;;19.90;81.50;;;;;;5061553;28;20491;-89
2023/04/21 13:45:38;;;;;;;2.20;0.40;;;19.80;80.00;;;;;;5060829;28;20093;-90
2023/04/21 13:48:04;;;;;;;1.08;0.22;;;19.80;80.70;;;;;;5059795;28;20044;-88
2023/04/21 13:50:38;;;;;;;0.10;0.10;;;19.80;80.80;;;;;;5059877;28;20131;-89
2023/04/21 13:53:14;;;;;;;0.00;0.00;;;19.80;81.20;;;;;;5060005;28;20051;-89
2023/04/21 13:55:46;;;;;;;0.20;0.20;;;19.70;78.50;;;;;;5060764;28;20048;-91
2023/04/21 13:58:17;;;;;;;1.00;0.45;;;19.90;79.20;;;;;;5061206;28;20101;-90
2023/04/21 14:00:54;;;;;;;0.10;0.10;;;20.10;78.00;;;;;;5060342;28;20056;-89
2023/04/21 14:03:22;;;;;;;0.20;0.20;;;20.40;77.70;;;;;;5059986;28;20044;-88
2023/04/21 14:08:42;;;;;;;0.22;0.17;;;20.60;78.30;;;;;;5048811;28;20048;-89
2023/04/21 14:11:11;;;;;;;0.00;0.00;;;20.50;75.00;;;;;;5061798;28;20086;-91
2023/04/21 14:13:48;;;;;;;0.00;0.00;;;20.60;75.80;;;;;;5045619;28;20546;-90
2023/04/21 14:16:17;;;;;;;0.20;0.20;;;20.50;74.60;;;;;;5026653;28;20047;-89
2023/04/21 14:19:06;;;;;;;0.00;0.00;;;20.50;73.10;;;;;;5059281;28;20044;-89
2023/04/21 14:21:42;;;;;;;0.82;0.25;;;20.40;73.30;;;;;;5059807;28;20048;-91
2023/04/21 14:24:27;;;;;;;0.00;0.00;;;20.50;72.50;;;;;;5043046;28;20044;-90
2023/04/21 14:26:56;;;;;;;4.28;0.35;;;20.60;72.60;;;;;;5060007;28;20117;-90
2023/04/21 14:32:34;;;;;;;0.10;0.10;;;20.80;73.00;;;;;;5056624;28;20094;-90
2023/04/21 14:35:05;;;;;;;0.08;0.05;;;20.80;73.10;;;;;;5058134;28;20036;-91
2023/04/21 14:37:34;;;;;;;0.20;0.20;;;20.70;70.70;;;;;;5059024;28;20597;-90
2023/04/21 14:40:12;;;;;;;0.03;0.00;;;20.70;71.60;;;;;;5042125;28;20052;-90
2023/04/21 14:42:47;;;;;;;;;;;;;;;;;;;;;
2023/04/21 14:45:31;;;;;;;0.22;0.10;;;20.60;69.80;;;;;;5075592;28;20048;-90
2023/04/21 14:51:10;;;;;;;;;;;;;;;;;;;;;
2023/04/21 14:53:39;;;;;;;1.38;0.28;;;20.30;71.40;;;;;;5062648;28;20063;-90
2023/04/21 14:56:19;;;;;;;0.00;0.00;;;20.30;69.50;;;;;;5058764;28;20461;-91
2023/04/21 14:59:10;;;;;;;;;;;;;;;;;;;;;
2023/04/21 15:01:45;;;;;;;0.00;0.00;;;20.10;68.20;;;;;;5075828;28;20044;-89
2023/04/21 15:04:19;;;;;;;;;;;20.00;69.60;;;;;;5058784;28;20048;-89
2023/04/21 15:07:02;;;;;;;0.00;0.00;;;20.00;68.90;;;;;;5058662;28;19924;-89
2023/04/21 15:09:39;;;;;;;0.00;0.00;;;20.00;69.50;;;;;;5058254;28;20044;-90
2023/04/21 15:12:16;;;;;;;;;;;;;;;;;;;;;
2023/04/21 15:14:42;;;;;;;0.00;0.00;;;20.00;68.80;;;;;;5060103;28;20052;-88
2023/04/21 15:17:10;;;;;;;0.17;0.03;;;20.00;69.00;;;;;;5058297;28;20047;-89
2023/04/21 15:20:45;;;;;;;;;;;;;;;;;;;;;
2023/04/21 15:23:36;;;;;;;;;;;;;;;;;;;;;
2023/04/21 15:26:44;;;;;;;;;;;;;;;;;;;;;
2023/04/21 15:29:19;;;;;;;0.05;0.05;;;19.70;68.80;;;;;;4962442;28;20112;-88
2023/04/21 15:31:54;;;;;;;;;;;19.80;69.30;;;;;;5037308;28;20037;-91
2023/04/21 15:34:29;;;;;;;0.00;0.00;;;19.70;69.60;;;;;;5018908;28;20008;-92
2023/04/21 15:37:13;;;;;;;0.00;0.00;;;19.80;68.50;;;;;;5036513;28;20045;-90
2023/04/21 15:39:46;;;;;;;0.03;0.03;;;19.90;67.90;;;;;;5022020;28;20037;-89
2023/04/21 15:42:17;;;;;;;1.17;0.32;;;19.90;69.00;;;;;;5037132;28;20049;-90
2023/04/21 15:45:20;;;;;;;0.43;0.15;;;20.00;68.20;;;;;;5008515;28;20045;-90
2023/04/21 15:48:21;;;;;;;;;;;;;;;;;;;;;
2023/04/21 15:51:09;;;;;;;0.55;0.40;;;20.20;66.80;;;;;;5049546;28;20060;-92
2023/04/21 15:53:52;;;;;;;;;;;;;;;;;;;;;
2023/04/21 15:57:13;;;;;;;;;;;;;;;;;;;;;
2023/04/21 16:00:01;;;;;;;;;;;;;;;;;;;;;
2023/04/21 16:02:54;;;;;;;0.10;0.10;;;20.40;65.80;;;;;;5057217;28;20040;-90
2023/04/21 16:05:42;;;;;;;0.28;0.20;;;20.40;66.10;;;;;;5031511;28;20052;-90
2023/04/21 16:08:28;;;;;;;0.10;0.10;;;20.30;66.30;;;;;;5039418;28;20049;-93
2023/04/21 16:11:19;;;;;;;0.32;0.32;;;20.20;67.10;;;;;;5039700;28;20044;-90
2023/04/21 16:14:15;;;;;;;0.17;0.10;;;20.10;67.70;;;;;;5091458;28;20088;-90
2023/04/21 16:16:44;;;;;;;0.32;0.22;;;20.10;66.20;;;;;;5028167;28;20519;-89
2023/04/21 16:19:10;;;;;;;0.68;0.22;;;20.10;66.20;;;;;;5074702;28;20083;-88
2023/04/21 16:21:40;;;;;;;0.20;0.20;;;20.00;65.40;;;;;;5040953;28;20044;-90
2023/04/21 16:24:14;;;;;;;0.00;0.00;;;20.00;66.20;;;;;;5074716;28;20165;-90
2023/04/21 16:27:05;;;;;;;0.00;0.00;;;19.80;65.50;;;;;;5041600;28;20480;-90
2023/04/21 16:29:52;;;;;;;0.20;0.00;;;19.60;66.60;;;;;;5042573;28;20047;-91
2023/04/21 16:33:01;;;;;;;;;;;;;;;;;;;;;
2023/04/21 16:35:51;;;;;;;;;;;;;;;;;;;;;
2023/04/21 16:42:02;;;;;;;0.20;0.10;;;19.40;67.30;;;;;;5027121;28;19920;-90
2023/04/21 16:45:03;;;;;;;6.13;0.40;;;19.30;66.20;;;;;;5058903;28;20098;-91
2023/04/21 16:48:18;;;;;;;0.10;0.05;;;19.30;66.60;;;;;;5040036;28;20072;-91
2023/04/21 16:51:44;;;;;;;;;;;;;;;;;;;;;
2023/04/21 16:57:27;;;;;;;0.35;0.10;;;19.00;68.90;;;;;;5018824;28;20054;-90
2023/04/21 17:01:10;;;;;;;;;;;;;;;;;;;;;
2023/04/21 17:04:17;;;;;;;0.00;0.00;;;18.70;72.50;;;;;;4962326;28;20107;-91
2023/04/21 17:14:45;;;;;;;0.03;0.00;;;17.90;81.30;;;;;;5032362;28;20053;-91
2023/04/21 17:17:38;;;;;;;;;;;;;;;;;;;;;
2023/04/21 17:20:44;;;;;;;0.00;0.00;;;17.70;85.40;;;;;;5016446;28;20132;-91
2023/04/21 17:23:25;;;;;;;0.10;0.10;;;17.60;85.70;;;;;;5000549;28;20132;-90
2023/04/21 17:30:07;;;;;;;;;;;;;;;;;;;;;
2023/04/21 17:36:31;;;;;;;0.00;0.00;;;17.60;89.00;;;;;;4996127;28;20097;-95
2023/04/21 17:39:52;;;;;;;;;;;;;;;;;;;;;
2023/04/21 17:45:52;;;;;;;0.15;0.15;;;17.60;86.60;;;;;;5059954;28;20159;-90
2023/04/21 17:57:56;;;;;;;0.00;0.00;;;17.40;86.80;;;;;;4913737;29;20052;-90
2023/04/21 18:00:33;;;;;;;0.00;0.00;;;17.40;86.70;;;;;;4889435;29;20058;-90
2023/04/21 18:03:02;;;;;;;0.08;0.00;;;17.40;85.10;;;;;;4919321;29;20054;-89
2023/04/21 18:05:31;;;;;;;0.00;0.00;;;17.30;83.70;;;;;;4920042;29;20039;-90
2023/04/21 18:08:24;;;;;;;0.00;0.00;;;17.30;81.70;;;;;;4919720;29;20051;-90
2023/04/21 18:11:00;;;;;;;0.10;0.10;;;17.40;80.90;;;;;;4899742;29;20492;-90